createdAt,value
2018-05-19T00:00:58.718Z,9.20
2018-05-19T00:03:26.263Z,8.47
2018-05-19T00:05:53.814Z,8.23
2018-05-19T00:08:21.362Z,9.40
2018-05-19T00:10:48.906Z,9.00
2018-05-19T00:13:16.425Z,9.37
2018-05-19T00:15:44.134Z,8.20
2018-05-19T00:18:11.667Z,8.10
2018-05-19T00:20:39.183Z,8.43
2018-05-19T00:23:06.746Z,9.03
2018-05-19T00:25:34.647Z,10.03
2018-05-19T00:28:02.174Z,8.93
2018-05-19T00:30:29.693Z,8.47
2018-05-19T00:32:57.451Z,9.00
2018-05-19T00:35:24.983Z,9.03
2018-05-19T00:37:52.497Z,9.43
2018-05-19T00:40:20.041Z,9.70
2018-05-19T00:42:47.745Z,8.50
2018-05-19T00:45:15.270Z,8.10
2018-05-19T00:47:42.794Z,9.17
2018-05-19T00:50:10.336Z,8.90
2018-05-19T00:52:37.858Z,8.57
2018-05-19T00:55:05.410Z,9.53
2018-05-19T00:57:32.954Z,8.23
2018-05-19T01:00:00.481Z,9.00
2018-05-19T01:02:28.031Z,9.07
2018-05-19T01:04:55.554Z,9.47
2018-05-19T01:07:23.072Z,8.70
2018-05-19T01:09:50.613Z,9.03
2018-05-19T01:12:18.129Z,9.37
2018-05-19T01:14:45.677Z,8.70
2018-05-19T01:17:13.193Z,8.53
2018-05-19T01:19:40.730Z,9.27
2018-05-19T01:22:08.270Z,9.03
2018-05-19T01:24:35.785Z,9.30
2018-05-19T01:27:03.551Z,8.20
2018-05-19T01:29:31.065Z,8.80
2018-05-19T01:31:58.591Z,8.83
2018-05-19T01:34:26.138Z,8.50
2018-05-19T01:36:53.758Z,8.00
2018-05-19T01:39:21.311Z,8.37
2018-05-19T01:41:49.315Z,7.30
2018-05-19T01:44:16.847Z,8.97
2018-05-19T01:46:44.361Z,7.70
2018-05-19T01:49:11.962Z,8.37
2018-05-19T01:51:39.487Z,8.13
2018-05-19T01:54:07.014Z,7.33
2018-05-19T01:56:34.555Z,8.37
2018-05-19T01:59:02.074Z,7.30
2018-05-19T02:01:29.622Z,8.03
2018-05-19T02:03:57.141Z,7.50
2018-05-19T02:06:24.825Z,7.33
2018-05-19T02:08:52.350Z,8.23
2018-05-19T02:11:19.866Z,7.77
2018-05-19T02:13:47.419Z,8.20
2018-05-19T02:16:14.937Z,8.23
2018-05-19T02:18:42.477Z,9.97
2018-05-19T02:21:10.003Z,7.23
2018-05-19T02:23:37.549Z,8.50
2018-05-19T02:26:05.078Z,7.73
2018-05-19T02:28:32.603Z,8.57
2018-05-19T02:31:00.149Z,7.77
2018-05-19T02:33:27.694Z,7.57
2018-05-19T02:35:55.247Z,8.20
2018-05-19T02:38:22.790Z,9.00
2018-05-19T02:40:50.343Z,7.60
2018-05-19T02:43:17.862Z,8.20
2018-05-19T02:45:45.440Z,8.63
2018-05-19T02:48:12.963Z,7.90
2018-05-19T02:50:40.510Z,8.60
2018-05-19T02:53:08.215Z,7.70
2018-05-19T02:55:35.738Z,8.00
2018-05-19T02:58:04.067Z,7.50
2018-05-19T03:00:31.619Z,7.80
2018-05-19T03:02:59.141Z,8.93
2018-05-19T03:05:26.715Z,9.07
2018-05-19T03:07:54.240Z,7.90
2018-05-19T03:10:21.764Z,8.93
2018-05-19T03:12:49.322Z,9.17
2018-05-19T03:15:16.834Z,8.03
2018-05-19T03:17:44.386Z,9.83
2018-05-19T03:20:11.910Z,8.10
2018-05-19T03:22:39.599Z,9.20
2018-05-19T03:25:07.117Z,8.30
2018-05-19T03:27:34.646Z,8.10
2018-05-19T03:30:02.330Z,8.37
2018-05-19T03:32:29.857Z,7.70
2018-05-19T03:34:57.377Z,8.40
2018-05-19T03:37:24.918Z,8.80
2018-05-19T03:39:52.438Z,7.87
2018-05-19T03:42:20.385Z,9.70
2018-05-19T03:44:47.904Z,9.33
2018-05-19T03:47:15.422Z,8.47
2018-05-19T03:49:42.961Z,9.37
2018-05-19T03:52:10.510Z,8.03
2018-05-19T03:54:38.049Z,8.43
2018-05-19T03:57:17.582Z,9.53
2018-05-19T03:59:57.054Z,9.20
2018-05-19T04:02:35.793Z,8.10
2018-05-19T04:05:03.314Z,9.20
2018-05-19T04:07:30.849Z,9.27
2018-05-19T04:09:58.389Z,8.17
2018-05-19T04:12:26.894Z,7.17
2018-05-19T04:14:54.434Z,8.77
2018-05-19T04:17:21.959Z,9.13
2018-05-19T04:19:49.634Z,8.43
2018-05-19T04:22:17.157Z,8.20
2018-05-19T04:24:44.684Z,8.67
2018-05-19T04:27:12.242Z,9.10
2018-05-19T04:29:39.771Z,8.63
2018-05-19T04:32:07.694Z,8.83
2018-05-19T04:34:35.213Z,8.53
2018-05-19T04:37:02.741Z,8.53
2018-05-19T04:39:30.721Z,9.00
2018-05-19T04:41:58.254Z,8.33
2018-05-19T04:44:25.790Z,9.17
2018-05-19T04:46:53.709Z,7.70
2018-05-19T04:49:21.248Z,9.13
2018-05-19T04:51:48.770Z,8.93
2018-05-19T04:54:16.320Z,8.47
2018-05-19T04:56:43.854Z,8.60
2018-05-19T04:59:11.412Z,8.27
2018-05-19T05:01:38.935Z,9.97
2018-05-19T05:04:06.615Z,9.37
2018-05-19T05:06:34.065Z,9.83
2018-05-19T05:09:01.592Z,9.67
2018-05-19T05:11:29.151Z,9.80
2018-05-19T05:13:56.727Z,8.07
2018-05-19T05:16:24.262Z,9.27
2018-05-19T05:18:51.794Z,9.13
2018-05-19T05:21:19.348Z,8.97
2018-05-19T05:23:46.942Z,9.20
2018-05-19T05:26:14.470Z,10.03
2018-05-19T05:28:42.005Z,10.47
2018-05-19T05:31:09.551Z,9.43
2018-05-19T05:33:37.089Z,8.67
2018-05-19T05:36:04.601Z,8.97
2018-05-19T05:38:32.281Z,8.87
2018-05-19T05:40:59.807Z,8.93
2018-05-19T05:43:27.327Z,10.83
2018-05-19T05:45:54.869Z,8.77
2018-05-19T05:48:22.400Z,9.30
2018-05-19T05:50:49.945Z,10.43
2018-05-19T05:53:17.457Z,9.20
2018-05-19T05:55:44.997Z,9.57
2018-05-19T05:58:12.573Z,9.53
2018-05-19T06:00:40.100Z,9.50
2018-05-19T06:03:07.626Z,9.83
2018-05-19T06:05:35.175Z,10.30
2018-05-19T06:08:02.707Z,10.20
2018-05-19T06:10:30.420Z,8.67
2018-05-19T06:12:57.946Z,10.47
2018-05-19T06:15:25.474Z,10.13
2018-05-19T06:17:53.032Z,11.07
2018-05-19T06:20:20.555Z,9.83
2018-05-19T06:22:48.295Z,10.47
2018-05-19T06:25:15.818Z,9.10
2018-05-19T06:27:43.356Z,10.60
2018-05-19T06:30:10.902Z,8.93
2018-05-19T06:32:38.417Z,9.87
2018-05-19T06:35:05.961Z,10.70
2018-05-19T06:37:33.486Z,10.23
2018-05-19T06:40:01.044Z,9.77
2018-05-19T06:42:28.585Z,9.90
2018-05-19T06:44:56.139Z,9.70
2018-05-19T06:47:24.117Z,9.60
2018-05-19T06:49:51.650Z,9.10
2018-05-19T06:52:19.169Z,9.30
2018-05-19T06:54:46.754Z,10.50
2018-05-19T06:57:14.347Z,11.07
2018-05-19T06:59:41.826Z,10.97
2018-05-19T07:02:09.370Z,10.43
2018-05-19T07:04:36.893Z,10.37
2018-05-19T07:07:04.442Z,10.60
2018-05-19T07:09:31.991Z,10.17
2018-05-19T07:11:59.531Z,9.80
2018-05-19T07:14:27.056Z,10.43
2018-05-19T07:16:54.601Z,9.40
2018-05-19T07:19:22.125Z,10.60
2018-05-19T07:21:49.674Z,10.13
2018-05-19T07:24:17.261Z,9.60
2018-05-19T07:26:44.806Z,9.90
2018-05-19T07:29:12.326Z,9.70
2018-05-19T07:31:39.874Z,9.50
2018-05-19T07:34:07.409Z,9.33
2018-05-19T07:36:34.990Z,9.20
2018-05-19T07:39:02.519Z,10.50
2018-05-19T07:41:30.043Z,9.73
2018-05-19T07:43:57.801Z,9.90
2018-05-19T07:46:25.320Z,10.20
2018-05-19T07:48:52.837Z,9.00
2018-05-19T07:51:20.387Z,9.93
2018-05-19T07:53:47.931Z,8.93
2018-05-19T07:56:15.473Z,9.83
2018-05-19T07:58:42.994Z,9.50
2018-05-19T08:01:10.550Z,9.20
2018-05-19T08:03:38.084Z,10.30
2018-05-19T08:06:05.636Z,9.97
2018-05-19T08:08:33.159Z,9.53
2018-05-19T08:11:00.703Z,8.90
2018-05-19T08:13:28.270Z,8.83
2018-05-19T08:15:55.789Z,9.47
2018-05-19T08:18:23.330Z,8.80
2018-05-19T08:20:50.867Z,9.23
2018-05-19T08:23:18.390Z,8.20
2018-05-19T08:25:45.939Z,8.53
2018-05-19T08:28:13.458Z,9.10
2018-05-19T08:30:40.973Z,7.07
2018-05-19T08:33:08.962Z,7.70
2018-05-19T08:35:36.478Z,8.17
2018-05-19T08:38:03.994Z,8.00
2018-05-19T08:40:31.550Z,8.17
2018-05-19T08:42:59.083Z,9.53
2018-05-19T08:45:26.622Z,8.00
2018-05-19T08:47:54.141Z,7.80
2018-05-19T08:50:21.695Z,7.57
2018-05-19T08:52:49.439Z,7.70
2018-05-19T08:55:16.957Z,7.77
2018-05-19T08:57:44.478Z,7.43
2018-05-19T09:00:12.163Z,6.83
2018-05-19T09:02:39.679Z,7.50
2018-05-19T09:05:07.203Z,8.60
2018-05-19T09:07:34.745Z,8.10
2018-05-19T09:10:02.277Z,6.73
2018-05-19T09:12:29.827Z,7.50
2018-05-19T09:14:57.368Z,7.60
2018-05-19T09:17:24.897Z,6.43
2018-05-19T09:19:52.793Z,6.10
2018-05-19T09:22:20.333Z,6.50
2018-05-19T09:24:47.868Z,6.57
2018-05-19T09:27:15.410Z,6.87
2018-05-19T09:29:42.957Z,5.73
2018-05-19T09:32:10.494Z,5.83
2018-05-19T09:34:38.014Z,5.53
2018-05-19T09:37:05.590Z,6.53
2018-05-19T09:39:33.117Z,6.20
2018-05-19T09:42:00.637Z,6.53
2018-05-19T09:44:28.177Z,7.27
2018-05-19T09:46:55.697Z,7.50
2018-05-19T09:49:23.246Z,6.80
2018-05-19T09:51:50.762Z,6.63
2018-05-19T09:54:18.309Z,7.93
2018-05-19T09:56:45.827Z,7.10
2018-05-19T09:59:13.374Z,7.50
2018-05-19T10:01:40.897Z,7.70
2018-05-19T10:04:08.443Z,6.37
2018-05-19T10:06:35.983Z,6.70
2018-05-19T10:09:04.075Z,6.50
2018-05-19T10:11:31.620Z,6.23
2018-05-19T10:13:59.132Z,6.53
2018-05-19T10:16:26.677Z,7.67
2018-05-19T10:18:54.198Z,6.60
2018-05-19T10:21:21.763Z,6.93
2018-05-19T10:23:49.288Z,6.53
2018-05-19T10:26:16.814Z,7.80
2018-05-19T10:28:44.367Z,6.83
2018-05-19T10:31:11.885Z,6.40
2018-05-19T10:33:39.631Z,7.27
2018-05-19T10:36:07.145Z,6.50
2018-05-19T10:38:34.687Z,7.00
2018-05-19T10:41:02.235Z,7.33
2018-05-19T10:43:29.758Z,6.90
2018-05-19T10:45:57.712Z,7.03
2018-05-19T10:48:25.238Z,7.10
2018-05-19T10:50:52.766Z,6.70
2018-05-19T10:53:20.309Z,8.20
2018-05-19T10:55:47.821Z,6.70
2018-05-19T10:58:15.573Z,7.13
2018-05-19T11:00:43.096Z,8.50
2018-05-19T11:03:10.614Z,6.63
2018-05-19T11:05:38.567Z,6.30
2018-05-19T11:08:06.093Z,6.80
2018-05-19T11:10:33.618Z,7.40
2018-05-19T11:13:01.193Z,7.20
2018-05-19T11:15:28.713Z,7.77
2018-05-19T11:17:56.234Z,7.70
2018-05-19T11:20:23.794Z,7.17
2018-05-19T11:22:51.309Z,7.10
2018-05-19T11:25:18.964Z,7.30
2018-05-19T11:27:46.420Z,6.60
2018-05-19T11:30:13.939Z,6.60
2018-05-19T11:32:41.480Z,7.67
2018-05-19T11:35:09.065Z,7.10
2018-05-19T11:37:36.661Z,6.87
2018-05-19T11:40:04.262Z,6.90
2018-05-19T11:42:31.818Z,7.33
2018-05-19T11:44:59.407Z,7.27
2018-05-19T11:47:26.929Z,6.80
2018-05-19T11:49:54.468Z,8.77
2018-05-19T11:52:22.056Z,7.50
2018-05-19T11:54:49.591Z,7.27
2018-05-19T11:57:17.109Z,7.70
2018-05-19T11:59:44.690Z,7.47
2018-05-19T12:02:12.205Z,7.90
2018-05-19T12:04:39.739Z,7.10
2018-05-19T12:07:07.290Z,7.97
2018-05-19T12:09:34.805Z,8.40
2018-05-19T12:12:02.451Z,7.30
2018-05-19T12:14:29.886Z,8.27
2018-05-19T12:16:57.438Z,8.60
2018-05-19T12:19:24.979Z,7.63
2018-05-19T12:21:52.630Z,7.50
2018-05-19T12:24:20.437Z,7.53
2018-05-19T12:26:47.955Z,8.13
2018-05-19T12:29:15.470Z,7.80
2018-05-19T12:31:43.018Z,8.03
2018-05-19T12:34:10.538Z,7.33
2018-05-19T12:36:38.501Z,7.90
2018-05-19T12:39:06.018Z,8.40
2018-05-19T12:41:33.641Z,7.27
2018-05-19T12:44:01.246Z,8.70
2018-05-19T12:46:28.767Z,8.70
2018-05-19T12:48:56.285Z,9.27
2018-05-19T12:51:23.826Z,9.07
2018-05-19T12:53:51.345Z,9.40
2018-05-19T12:56:18.931Z,8.20
2018-05-19T12:58:46.455Z,8.13
2018-05-19T13:01:13.970Z,8.23
2018-05-19T13:03:41.509Z,7.73
2018-05-19T13:06:09.056Z,7.80
2018-05-19T13:08:36.586Z,8.30
2018-05-19T13:11:04.125Z,7.60
2018-05-19T13:13:31.671Z,8.40
2018-05-19T13:15:59.222Z,7.60
2018-05-19T13:18:26.745Z,7.60
2018-05-19T13:20:54.290Z,8.97
2018-05-19T13:23:21.849Z,8.77
2018-05-19T13:25:49.437Z,8.93
2018-05-19T13:28:16.914Z,8.83
2018-05-19T13:30:44.462Z,8.67
2018-05-19T13:33:11.977Z,8.00
2018-05-19T13:35:39.517Z,8.70
2018-05-19T13:38:07.050Z,8.57
2018-05-19T13:40:34.598Z,8.13
2018-05-19T13:43:02.169Z,8.40
2018-05-19T13:45:29.694Z,8.33
2018-05-19T13:47:57.218Z,8.93
2018-05-19T13:50:24.769Z,8.00
2018-05-19T13:52:52.293Z,8.67
2018-05-19T13:55:19.838Z,8.60
2018-05-19T13:57:47.414Z,7.87
2018-05-19T14:00:14.926Z,8.83
2018-05-19T14:02:42.733Z,8.90
2018-05-19T14:05:10.315Z,9.40
2018-05-19T14:07:37.853Z,9.00
2018-05-19T14:10:05.380Z,9.03
2018-05-19T14:12:32.921Z,9.67
2018-05-19T14:15:00.437Z,8.90
2018-05-19T14:17:28.386Z,8.40
2018-05-19T14:19:55.913Z,10.50
2018-05-19T14:22:23.440Z,8.80
2018-05-19T14:24:50.991Z,9.10
2018-05-19T14:27:18.509Z,10.20
2018-05-19T14:29:46.053Z,10.00
2018-05-19T14:32:13.647Z,9.30
2018-05-19T14:34:41.165Z,9.77
2018-05-19T14:37:08.769Z,9.63
2018-05-19T14:39:36.649Z,10.00
2018-05-19T14:42:04.173Z,10.53
2018-05-19T14:44:31.718Z,10.70
2018-05-19T14:46:59.262Z,9.97
2018-05-19T14:49:26.781Z,10.63
2018-05-19T14:51:54.331Z,11.37
2018-05-19T14:54:21.864Z,9.97
2018-05-19T14:56:49.662Z,9.63
2018-05-19T14:59:17.181Z,10.00
2018-05-19T15:01:44.738Z,8.70
2018-05-19T15:04:12.489Z,10.43
2018-05-19T15:06:40.016Z,9.20
2018-05-19T15:09:07.544Z,10.43
2018-05-19T15:11:35.099Z,10.07
2018-05-19T15:14:02.631Z,10.67
2018-05-19T15:16:30.192Z,9.30
2018-05-19T15:18:57.717Z,10.07
2018-05-19T15:21:25.261Z,11.30
2018-05-19T15:23:52.782Z,11.93
2018-05-19T15:26:20.855Z,10.50
2018-05-19T15:28:48.370Z,11.67
2018-05-19T15:31:15.893Z,11.30
2018-05-19T15:33:43.574Z,10.60
2018-05-19T15:36:11.098Z,11.93
2018-05-19T15:38:38.711Z,10.80
2018-05-19T15:41:06.615Z,11.20
2018-05-19T15:43:34.149Z,11.23
2018-05-19T15:46:01.679Z,10.33
2018-05-19T15:48:29.622Z,11.10
2018-05-19T15:50:57.141Z,11.00
2018-05-19T15:53:24.670Z,11.40
2018-05-19T15:55:52.221Z,11.13
2018-05-19T15:58:19.746Z,11.67
2018-05-19T16:00:47.322Z,11.07
2018-05-19T16:03:14.850Z,11.90
2018-05-19T16:05:42.382Z,11.23
2018-05-19T16:08:10.114Z,10.80
2018-05-19T16:10:37.639Z,9.07
2018-05-19T16:13:05.154Z,9.77
2018-05-19T16:15:32.718Z,11.77
2018-05-19T16:18:00.257Z,9.60
2018-05-19T16:20:27.791Z,10.67
2018-05-19T16:22:55.653Z,12.10
2018-05-19T16:25:23.177Z,11.70
2018-05-19T16:27:50.697Z,12.17
2018-05-19T16:30:18.266Z,11.97
2018-05-19T16:32:45.826Z,11.77
2018-05-19T16:35:13.358Z,11.90
2018-05-19T16:37:40.909Z,11.80
2018-05-19T16:40:08.670Z,12.00
2018-05-19T16:42:36.193Z,13.30
2018-05-19T16:45:03.890Z,11.63
2018-05-19T16:47:31.434Z,13.20
2018-05-19T16:49:58.950Z,11.80
2018-05-19T16:52:26.633Z,12.07
2018-05-19T16:54:54.154Z,12.63
2018-05-19T16:57:21.678Z,13.03
2018-05-19T16:59:49.230Z,12.50
2018-05-19T17:02:16.757Z,10.83
2018-05-19T17:04:44.306Z,11.93
2018-05-19T17:07:11.889Z,13.13
2018-05-19T17:09:39.449Z,10.10
2018-05-19T17:12:06.969Z,11.90
2018-05-19T17:14:34.508Z,12.10
2018-05-19T17:17:02.185Z,13.60
2018-05-19T17:19:29.713Z,11.30
2018-05-19T17:21:57.335Z,12.70
2018-05-19T17:24:24.814Z,12.20
2018-05-19T17:26:52.361Z,11.47
2018-05-19T17:29:19.882Z,12.60
2018-05-19T17:31:47.606Z,12.50
2018-05-19T17:34:15.125Z,12.20
2018-05-19T17:36:42.643Z,13.57
2018-05-19T17:39:11.033Z,13.00
2018-05-19T17:41:38.558Z,12.93
2018-05-19T17:44:06.099Z,12.90
2018-05-19T17:46:33.675Z,12.97
2018-05-19T17:49:01.325Z,12.70
2018-05-19T17:51:28.852Z,12.63
2018-05-19T17:53:56.373Z,12.20
2018-05-19T17:56:24.792Z,12.60
2018-05-19T17:58:52.331Z,12.13
2018-05-19T18:01:20.163Z,12.93
2018-05-19T18:03:47.710Z,12.37
2018-05-19T18:06:15.257Z,13.20
2018-05-19T18:08:42.825Z,12.27
2018-05-19T18:11:10.354Z,13.00
2018-05-19T18:13:37.874Z,11.30
2018-05-19T18:16:05.432Z,13.00
2018-05-19T18:18:33.003Z,12.07
2018-05-19T18:21:00.590Z,12.50
2018-05-19T18:23:28.120Z,11.40
2018-05-19T18:25:55.641Z,12.23
2018-05-19T18:28:23.713Z,12.10
2018-05-19T18:30:51.437Z,14.13
2018-05-19T18:33:19.065Z,11.93
2018-05-19T18:35:46.593Z,11.30
2018-05-19T18:38:14.141Z,11.90
2018-05-19T18:40:41.743Z,12.50
2018-05-19T18:43:09.681Z,12.87
2018-05-19T18:45:37.367Z,11.40
2018-05-19T18:48:04.923Z,12.23
2018-05-19T18:50:32.533Z,11.60
2018-05-19T18:53:00.899Z,12.83
2018-05-19T18:55:28.617Z,13.53
2018-05-19T18:57:56.177Z,11.97
2018-05-19T19:00:23.738Z,12.97
2018-05-19T19:02:51.301Z,13.03
2018-05-19T19:05:18.958Z,13.10
2018-05-19T19:07:46.510Z,12.10
2018-05-19T19:10:14.172Z,13.57
2018-05-19T19:12:41.725Z,11.47
2018-05-19T19:15:09.249Z,13.20
2018-05-19T19:17:36.831Z,11.63
2018-05-19T19:20:04.362Z,13.80
2018-05-19T19:22:31.885Z,12.10
2018-05-19T19:24:59.457Z,13.70
2018-05-19T19:27:26.981Z,13.07
2018-05-19T19:29:54.638Z,14.10
2018-05-19T19:32:22.195Z,13.23
2018-05-19T19:34:49.727Z,15.17
2018-05-19T19:37:17.270Z,14.90
2018-05-19T19:39:44.818Z,15.20
2018-05-19T19:42:12.445Z,13.40
2018-05-19T19:44:40.002Z,14.20
2018-05-19T19:47:07.918Z,13.00
2018-05-19T19:49:35.445Z,12.87
2018-05-19T19:52:02.974Z,12.43
2018-05-19T19:54:30.542Z,15.10
2018-05-19T19:56:58.082Z,13.90
2018-05-19T19:59:25.738Z,13.67
2018-05-19T20:01:53.213Z,13.53
2018-05-19T20:04:20.738Z,13.60
2018-05-19T20:06:48.281Z,12.50
2018-05-19T20:09:15.808Z,13.90
2018-05-19T20:11:43.557Z,14.93
2018-05-19T20:14:11.101Z,13.23
2018-05-19T20:16:38.635Z,14.50
2018-05-19T20:19:06.186Z,14.73
2018-05-19T20:21:33.713Z,15.20
2018-05-19T20:24:01.272Z,13.13
2018-05-19T20:26:28.939Z,15.30
2018-05-19T20:28:56.456Z,13.00
2018-05-19T20:31:23.986Z,14.57
2018-05-19T20:33:51.575Z,15.00
2018-05-19T20:36:19.097Z,13.83
2018-05-19T20:38:46.624Z,14.90
2018-05-19T20:41:14.179Z,13.23
2018-05-19T20:43:41.910Z,15.07
2018-05-19T20:46:09.433Z,14.80
2018-05-19T20:48:36.984Z,14.50
2018-05-19T20:51:05.073Z,14.73
2018-05-19T20:53:32.577Z,16.13
2018-05-19T20:56:00.106Z,14.53
2018-05-19T20:58:27.659Z,15.43
2018-05-19T21:00:55.177Z,15.07
2018-05-19T21:03:22.907Z,15.13
2018-05-19T21:05:50.433Z,14.97
2018-05-19T21:08:17.960Z,15.90
2018-05-19T21:10:45.509Z,14.70
2018-05-19T21:13:13.049Z,15.50
2018-05-19T21:15:40.604Z,16.97
2018-05-19T21:18:08.149Z,17.20
2018-05-19T21:20:35.674Z,16.50
2018-05-19T21:23:03.225Z,17.90
2018-05-19T21:25:30.774Z,16.27
2018-05-19T21:27:58.317Z,15.80
2018-05-19T21:30:25.835Z,17.07
2018-05-19T21:32:53.386Z,16.97
2018-05-19T21:35:20.948Z,17.07
2018-05-19T21:37:48.498Z,16.90
2018-05-19T21:40:16.189Z,18.00
2018-05-19T21:42:43.723Z,16.67
2018-05-19T21:45:11.251Z,19.00
2018-05-19T21:47:38.798Z,18.70
2018-05-19T21:50:06.415Z,17.73
2018-05-19T21:52:34.055Z,19.60
2018-05-19T21:55:01.577Z,19.80
2018-05-19T21:57:29.124Z,18.47
2018-05-19T21:59:56.669Z,18.27
2018-05-19T22:02:24.194Z,18.73
2018-05-19T22:04:51.772Z,19.87
2018-05-19T22:07:19.310Z,19.93
2018-05-19T22:09:46.834Z,18.67
2018-05-19T22:12:14.381Z,19.63
2018-05-19T22:14:41.920Z,18.90
2018-05-19T22:17:09.471Z,18.67
2018-05-19T22:19:36.988Z,19.60
2018-05-19T22:22:04.664Z,19.17
2018-05-19T22:24:32.185Z,20.70
2018-05-19T22:26:59.711Z,18.77
2018-05-19T22:29:27.311Z,18.63
2018-05-19T22:31:54.842Z,19.37
2018-05-19T22:34:22.379Z,19.23
2018-05-19T22:36:49.965Z,19.27
2018-05-19T22:39:17.489Z,21.33
2018-05-19T22:41:45.037Z,21.03
2018-05-19T22:44:12.553Z,20.10
2018-05-19T22:46:40.092Z,21.00
2018-05-19T22:49:07.613Z,20.87
2018-05-19T22:51:35.210Z,22.10
2018-05-19T22:54:02.758Z,21.00
2018-05-19T22:56:30.301Z,22.80
2018-05-19T22:58:58.235Z,23.00
2018-05-19T23:01:25.757Z,21.30
2018-05-19T23:03:53.290Z,22.80
2018-05-19T23:06:20.833Z,23.03
2018-05-19T23:08:48.353Z,23.03
2018-05-19T23:11:15.914Z,22.87
2018-05-19T23:13:43.443Z,21.50
2018-05-19T23:16:10.989Z,22.30
2018-05-19T23:18:39.018Z,19.53
2018-05-19T23:21:06.533Z,19.93
2018-05-19T23:23:34.062Z,21.63
2018-05-19T23:26:01.623Z,20.87
2018-05-19T23:28:29.174Z,21.60
2018-05-19T23:30:56.692Z,20.57
2018-05-19T23:33:24.374Z,21.73
2018-05-19T23:35:51.901Z,23.70
2018-05-19T23:38:19.425Z,20.07
2018-05-19T23:40:46.965Z,22.13
2018-05-19T23:43:14.489Z,22.43
2018-05-19T23:45:42.037Z,22.20
2018-05-19T23:48:09.557Z,22.23
2018-05-19T23:50:37.101Z,22.20
2018-05-19T23:53:04.628Z,20.93
2018-05-19T23:55:32.183Z,21.70
2018-05-19T23:57:59.725Z,21.70
